Time;durP1;ratioP1;P1;durP2;ratioP2;P2;SDS_P1;SDS_P2;PMS_P1;PMS_P2;Temp;Humidity;BMP_temperature;BMP_pressure;BME280_temperature;BME280_humidity;BME280_pressure;Samples;Min_cycle;Max_cycle;Signal;HPM_P1;HPM_P2
2023/12/21 00:00:33;;;;;;;3.10;1.17;;;;;;;8.90;56.44;97229.25;5016980;28;20283;-69
2023/12/21 00:02:59;;;;;;;2.37;1.60;;;;;;;9.10;56.54;97221.34;5022149;28;20526;-71
2023/12/21 00:05:25;;;;;;;3.87;1.53;;;;;;;8.82;56.73;97218.69;5025782;28;20287;-69
2023/12/21 00:07:50;;;;;;;2.33;1.20;;;;;;;9.03;56.60;97215.84;5013180;28;20230;-69
2023/12/21 00:10:15;;;;;;;2.20;1.30;;;;;;;8.72;57.34;97223.91;5022122;28;20427;-72
2023/12/21 00:12:41;;;;;;;1.90;1.00;;;;;;;8.75;57.63;97215.81;5016637;28;20195;-70
2023/12/21 00:15:07;;;;;;;2.23;1.10;;;;;;;8.73;57.04;97192.41;5028669;28;20208;-69
2023/12/21 00:17:33;;;;;;;1.70;1.13;;;;;;;8.79;57.19;97196.25;5035027;28;20212;-70
2023/12/21 00:19:58;;;;;;;2.40;1.20;;;;;;;8.67;57.71;97205.22;5022800;28;20454;-69
2023/12/21 00:22:24;;;;;;;2.47;1.20;;;;;;;8.69;57.59;97193.69;5038000;28;20192;-70
2023/12/21 00:24:49;;;;;;;1.23;0.83;;;;;;;8.89;57.14;97198.84;5021784;28;20827;-68
2023/12/21 00:27:14;;;;;;;1.23;1.07;;;;;;;8.98;57.01;97197.97;5036363;28;20334;-71
2023/12/21 00:29:40;;;;;;;1.10;1.00;;;;;;;8.79;57.47;97183.19;5035681;28;20187;-70
2023/12/21 00:32:06;;;;;;;1.10;0.90;;;;;;;8.81;57.56;97185.66;5046845;28;20270;-69
2023/12/21 00:34:31;;;;;;;1.60;1.00;;;;;;;8.64;57.66;97174.97;5032317;28;20199;-71
2023/12/21 00:36:56;;;;;;;1.10;1.00;;;;;;;8.67;57.58;97172.09;5039458;28;20958;-71
2023/12/21 00:39:22;;;;;;;1.03;0.83;;;;;;;8.86;57.25;97179.06;5040224;28;20838;-70
2023/12/21 00:41:47;;;;;;;1.00;0.80;;;;;;;8.51;58.08;97166.59;5035503;28;20261;-69
2023/12/21 00:44:13;;;;;;;1.90;0.90;;;;;;;8.58;57.77;97170.28;5033444;28;20194;-70
2023/12/21 00:46:38;;;;;;;1.53;1.00;;;;;;;8.80;57.71;97173.56;5041494;28;20269;-69
2023/12/21 00:49:04;;;;;;;1.00;0.80;;;;;;;8.88;57.56;97184.13;5043625;28;20191;-69
2023/12/21 00:51:29;;;;;;;1.10;0.90;;;;;;;8.87;57.48;97174.63;5038347;28;20193;-71
2023/12/21 00:53:54;;;;;;;0.90;0.70;;;;;;;8.83;57.56;97165.41;5037551;28;20214;-73
2023/12/21 00:56:20;;;;;;;4.20;0.90;;;;;;;8.85;57.86;97171.34;5042472;28;20574;-70
2023/12/21 00:58:45;;;;;;;1.43;0.60;;;;;;;8.75;58.01;97166.97;5033502;28;20191;-69
2023/12/21 01:01:11;;;;;;;1.47;0.70;;;;;;;8.78;58.20;97162.44;5040612;28;20764;-70
2023/12/21 01:03:36;;;;;;;1.00;0.70;;;;;;;8.88;57.67;97164.03;5028817;28;20290;-69
2023/12/21 01:06:02;;;;;;;0.80;0.60;;;;;;;8.96;57.54;97160.69;5041989;28;20349;-69
2023/12/21 01:08:27;;;;;;;0.97;0.60;;;;;;;8.92;57.63;97164.59;5039269;28;20195;-69
2023/12/21 01:10:53;;;;;;;1.63;0.80;;;;;;;8.89;58.07;97149.19;5038706;28;20207;-69
2023/12/21 01:13:18;;;;;;;1.50;1.00;;;;;;;8.62;58.77;97144.75;5041597;28;20199;-71
2023/12/21 01:15:44;;;;;;;1.47;0.80;;;;;;;8.49;59.34;97147.63;5032777;28;20213;-68
2023/12/21 01:18:09;;;;;;;1.40;0.83;;;;;;;8.79;59.44;97145.78;5045089;28;20657;-71
2023/12/21 01:20:34;;;;;;;2.60;0.97;;;;;;;8.79;58.78;97135.34;5032794;28;20278;-70
2023/12/21 01:23:00;;;;;;;1.50;0.80;;;;;;;8.90;58.53;97130.72;5038481;28;20257;-69
2023/12/21 01:25:26;;;;;;;0.83;0.60;;;;;;;8.90;58.61;97128.13;5037253;28;20299;-70
2023/12/21 01:27:52;;;;;;;1.50;0.80;;;;;;;8.86;58.33;97124.16;5034243;28;20541;-71
2023/12/21 01:30:17;;;;;;;0.90;0.80;;;;;;;8.81;57.94;97123.75;5040204;28;20684;-69
2023/12/21 01:32:43;;;;;;;1.53;0.73;;;;;;;8.66;59.13;97120.78;5037720;28;20290;-70
2023/12/21 01:35:08;;;;;;;2.13;0.90;;;;;;;8.74;58.52;97123.50;5030182;28;20196;-71
2023/12/21 01:37:34;;;;;;;1.03;0.80;;;;;;;8.73;58.41;97121.84;5027952;28;20241;-70
2023/12/21 01:39:59;;;;;;;1.40;1.00;;;;;;;8.83;58.45;97121.00;5031883;28;20188;-69
2023/12/21 01:42:24;;;;;;;1.83;0.77;;;;;;;8.97;57.50;97122.34;5035295;28;20198;-70
2023/12/21 01:44:50;;;;;;;2.33;1.07;;;;;;;8.90;57.98;97119.47;5044177;28;20214;-70
2023/12/21 01:47:16;;;;;;;4.03;0.90;;;;;;;8.86;58.08;97121.56;5030179;28;20204;-71
2023/12/21 01:49:41;;;;;;;1.00;0.70;;;;;;;8.83;58.28;97118.38;5034879;28;20836;-70
2023/12/21 01:52:08;;;;;;;1.40;0.90;;;;;;;8.79;58.36;97111.81;5035619;28;20285;-70
2023/12/21 01:54:34;;;;;;;1.20;0.60;;;;;;;8.97;58.22;97107.47;5030491;28;20496;-70
2023/12/21 01:56:59;;;;;;;0.80;0.50;;;;;;;8.51;58.10;97116.97;5039958;28;20454;-70
2023/12/21 01:59:25;;;;;;;1.50;0.80;;;;;;;8.93;57.98;97087.81;5043999;28;21107;-72
2023/12/21 02:01:51;;;;;;;1.37;0.70;;;;;;;8.84;57.97;97067.75;5017454;28;20675;-70
2023/12/21 02:04:16;;;;;;;0.80;0.70;;;;;;;8.65;58.36;97072.13;5038156;28;20773;-71
2023/12/21 02:06:42;;;;;;;1.17;0.80;;;;;;;8.50;59.17;97070.94;5033823;28;20299;-70
2023/12/21 02:09:07;;;;;;;0.80;0.60;;;;;;;8.92;57.89;97057.44;5035530;28;20739;-71
2023/12/21 02:11:33;;;;;;;1.00;0.67;;;;;;;8.81;58.54;97060.22;5040813;28;20188;-70
2023/12/21 02:13:58;;;;;;;1.23;0.60;;;;;;;8.75;58.33;97057.22;5043078;28;20266;-71
2023/12/21 02:16:28;;;;;;;4.30;0.70;;;;;;;8.71;58.50;97060.25;5038199;28;20520;-69
2023/12/21 02:18:54;;;;;;;1.93;0.77;;;;;;;8.87;58.05;97050.03;5019706;28;20199;-70
2023/12/21 02:21:20;;;;;;;0.90;0.70;;;;;;;8.62;58.55;97051.50;5034898;28;20447;-70
2023/12/21 02:23:46;;;;;;;0.80;0.60;;;;;;;8.80;58.24;97051.56;5027727;28;20195;-70
2023/12/21 02:26:13;;;;;;;0.73;0.50;;;;;;;8.75;58.79;97051.19;5020879;28;20520;-70
2023/12/21 02:28:39;;;;;;;1.20;0.70;;;;;;;8.93;58.12;97045.16;5035757;28;20833;-71
2023/12/21 02:31:04;;;;;;;1.27;0.57;;;;;;;8.73;58.42;97043.47;5030934;28;20442;-70
2023/12/21 02:33:30;;;;;;;0.90;0.60;;;;;;;8.81;58.57;97047.16;5040099;28;20500;-69
2023/12/21 02:35:55;;;;;;;1.10;0.70;;;;;;;8.99;57.92;97027.09;5013567;28;20214;-69
2023/12/21 02:38:20;;;;;;;1.73;0.90;;;;;;;8.68;59.08;97014.34;5027107;28;22090;-71
2023/12/21 02:40:46;;;;;;;1.00;0.70;;;;;;;8.81;58.56;97018.41;5032642;28;20188;-71
2023/12/21 02:43:11;;;;;;;1.40;0.70;;;;;;;8.69;58.99;97010.78;5039742;28;20279;-71
2023/12/21 02:45:37;;;;;;;1.37;0.80;;;;;;;8.72;58.75;97010.47;5030124;28;20298;-70
2023/12/21 02:48:02;;;;;;;0.90;0.60;;;;;;;8.94;58.13;97003.22;5040618;28;20209;-70
2023/12/21 02:50:28;;;;;;;1.20;0.60;;;;;;;9.05;58.01;97004.78;5032736;28;20253;-71
2023/12/21 02:52:53;;;;;;;0.80;0.60;;;;;;;9.02;58.14;96995.44;5045309;28;20281;-70
2023/12/21 02:55:19;;;;;;;1.93;0.80;;;;;;;9.05;58.31;97003.00;5038120;28;20564;-71
2023/12/21 02:57:44;;;;;;;0.80;0.50;;;;;;;8.82;58.26;96970.41;5038551;28;20210;-70
2023/12/21 03:00:10;;;;;;;0.80;0.57;;;;;;;8.98;58.37;96988.06;5042103;28;20272;-71
2023/12/21 03:02:35;;;;;;;1.13;0.60;;;;;;;8.91;58.53;96979.97;5034103;28;20196;-71
2023/12/21 03:05:01;;;;;;;1.37;0.60;;;;;;;9.12;57.94;96968.41;5033866;28;20341;-71
2023/12/21 03:07:26;;;;;;;1.50;0.63;;;;;;;9.03;58.54;96950.03;5040235;28;20230;-71
2023/12/21 03:09:52;;;;;;;0.90;0.60;;;;;;;9.15;58.46;96939.38;5027620;28;20293;-71
2023/12/21 03:12:17;;;;;;;0.90;0.60;;;;;;;9.14;58.93;96945.56;5029700;28;20560;-71
2023/12/21 03:14:43;;;;;;;1.47;0.70;;;;;;;8.90;59.05;96954.81;5035984;28;20548;-70
2023/12/21 03:17:08;;;;;;;0.87;0.60;;;;;;;9.07;58.74;96955.78;5033156;28;20312;-72
2023/12/21 03:19:33;;;;;;;0.80;0.57;;;;;;;9.12;58.72;96953.56;5031406;28;20200;-71
2023/12/21 03:21:59;;;;;;;0.90;0.50;;;;;;;9.06;58.63;96949.75;5029849;28;20190;-72
2023/12/21 03:24:24;;;;;;;1.00;0.70;;;;;;;9.10;59.00;96955.50;5040054;28;20270;-73
2023/12/21 03:26:50;;;;;;;1.73;0.60;;;;;;;9.03;58.91;96960.50;5024042;28;20223;-70
2023/12/21 03:29:16;;;;;;;0.83;0.60;;;;;;;8.67;60.22;96959.63;5033632;28;20234;-71
2023/12/21 03:31:41;;;;;;;0.80;0.50;;;;;;;8.95;59.40;96947.34;5041637;28;20187;-71
2023/12/21 03:34:07;;;;;;;0.80;0.60;;;;;;;9.27;58.69;96945.16;5039519;28;20199;-69
2023/12/21 03:36:32;;;;;;;0.70;0.50;;;;;;;8.91;59.76;96948.63;5043724;28;20241;-71
2023/12/21 03:38:59;;;;;;;0.90;0.60;;;;;;;8.97;59.74;96955.84;5043619;28;20187;-71
2023/12/21 03:41:25;;;;;;;0.80;0.60;;;;;;;9.19;59.06;96938.09;5041665;28;20867;-70
2023/12/21 03:43:50;;;;;;;0.80;0.50;;;;;;;9.21;58.95;96936.97;5036580;28;20445;-71
2023/12/21 03:46:15;;;;;;;0.90;0.60;;;;;;;9.11;59.35;96935.41;5050427;28;20215;-70
2023/12/21 03:48:41;;;;;;;0.80;0.60;;;;;;;9.01;59.85;96933.69;5042914;28;20569;-70
2023/12/21 03:51:06;;;;;;;0.80;0.60;;;;;;;9.10;59.84;96955.50;5035521;28;20597;-70
2023/12/21 03:53:32;;;;;;;1.13;0.63;;;;;;;9.22;59.42;96962.16;5032606;28;20607;-70
2023/12/21 03:55:57;;;;;;;1.33;0.60;;;;;;;9.10;59.62;96955.50;5032297;28;20218;-71
2023/12/21 03:58:23;;;;;;;1.37;0.80;;;;;;;9.20;59.51;96965.88;5039420;28;20190;-71
2023/12/21 04:00:48;;;;;;;0.77;0.50;;;;;;;9.21;59.53;96941.38;5034675;28;20230;-69
2023/12/21 04:03:14;;;;;;;0.90;0.50;;;;;;;9.21;59.26;96946.59;5032624;28;20804;-71
2023/12/21 04:05:39;;;;;;;0.80;0.60;;;;;;;9.07;60.06;96945.34;5037972;28;20204;-70
2023/12/21 04:08:06;;;;;;;0.90;0.60;;;;;;;8.89;60.57;96934.88;5037200;28;20630;-70
2023/12/21 04:10:31;;;;;;;0.80;0.60;;;;;;;8.96;60.51;96930.69;5041597;28;20219;-70
2023/12/21 04:12:57;;;;;;;0.90;0.50;;;;;;;9.01;60.09;96936.28;5041563;28;20434;-70
2023/12/21 04:15:22;;;;;;;1.30;0.60;;;;;;;9.14;59.89;96929.88;5046755;28;20567;-72
2023/12/21 04:17:48;;;;;;;0.80;0.50;;;;;;;9.34;59.51;96931.34;5037639;28;20226;-69
2023/12/21 04:20:13;;;;;;;1.37;0.60;;;;;;;9.28;60.18;96905.81;5049867;28;20646;-70
2023/12/21 04:22:38;;;;;;;0.77;0.53;;;;;;;9.20;60.31;96914.41;5040002;28;20198;-69
2023/12/21 04:25:04;;;;;;;1.73;0.70;;;;;;;9.20;60.58;96913.56;5038430;28;20274;-70
2023/12/21 04:27:29;;;;;;;0.87;0.60;;;;;;;9.35;60.01;96916.50;5024142;28;20222;-70
2023/12/21 04:29:55;;;;;;;0.83;0.50;;;;;;;9.24;60.76;96914.13;5042291;28;20290;-69
2023/12/21 04:32:20;;;;;;;1.73;0.70;;;;;;;9.28;60.54;96895.34;5036872;28;20648;-70
2023/12/21 04:34:46;;;;;;;0.87;0.60;;;;;;;9.29;60.80;96901.38;5041021;28;20261;-69
2023/12/21 04:37:12;;;;;;;1.00;0.60;;;;;;;9.28;61.24;96894.50;5024165;28;20847;-71
2023/12/21 04:39:38;;;;;;;1.10;0.63;;;;;;;9.24;61.20;96891.38;5024266;28;20197;-71
2023/12/21 04:42:03;;;;;;;1.30;0.80;;;;;;;9.37;60.91;96883.97;5041160;28;20518;-69
2023/12/21 04:44:29;;;;;;;2.47;0.63;;;;;;;9.41;60.96;96881.88;5025813;28;20607;-70
2023/12/21 04:46:54;;;;;;;0.80;0.60;;;;;;;9.45;61.06;96879.78;5029522;28;20211;-70
2023/12/21 04:49:22;;;;;;;0.80;0.50;;;;;;;9.43;61.27;96871.25;5017524;28;20747;-70
2023/12/21 04:51:48;;;;;;;2.07;0.53;;;;;;;9.48;61.09;96869.00;5040867;28;20234;-70
2023/12/21 04:54:14;;;;;;;0.80;0.60;;;;;;;9.30;62.06;96862.03;5032889;28;20439;-70
2023/12/21 04:56:42;;;;;;;1.00;0.60;;;;;;;9.42;61.51;96872.25;5013222;28;20231;-71
2023/12/21 04:59:08;;;;;;;0.80;0.53;;;;;;;9.15;62.28;96858.31;5036672;28;20183;-70
2023/12/21 05:01:34;;;;;;;0.90;0.60;;;;;;;9.27;62.21;96853.66;5033398;28;20802;-71
2023/12/21 05:04:02;;;;;;;0.80;0.60;;;;;;;9.39;62.05;96849.81;5040692;28;20526;-72
2023/12/21 05:06:28;;;;;;;0.80;0.53;;;;;;;9.51;61.38;96847.75;5038983;28;20273;-72
2023/12/21 05:08:54;;;;;;;1.00;0.60;;;;;;;9.26;61.83;96829.31;5018379;28;20439;-72
2023/12/21 05:11:20;;;;;;;0.70;0.50;;;;;;;9.49;61.61;96828.78;5036241;28;20219;-70
2023/12/21 05:13:45;;;;;;;0.80;0.50;;;;;;;9.31;61.48;96832.28;5044079;28;20526;-70
2023/12/21 05:16:11;;;;;;;1.10;0.80;;;;;;;9.44;61.71;96831.06;5033151;28;20215;-70
2023/12/21 05:18:37;;;;;;;0.70;0.50;;;;;;;9.33;61.45;96847.81;5033000;28;20210;-71
2023/12/21 05:21:02;;;;;;;0.80;0.60;;;;;;;9.41;61.58;96839.22;5036022;28;20621;-70
2023/12/21 05:23:28;;;;;;;0.80;0.50;;;;;;;9.22;61.87;96838.41;5043324;28;20183;-70
2023/12/21 05:25:53;;;;;;;0.80;0.50;;;;;;;9.32;62.02;96826.09;5040775;28;20708;-70
2023/12/21 05:28:19;;;;;;;0.80;0.50;;;;;;;9.48;61.66;96822.75;5029283;28;20199;-70
2023/12/21 05:30:44;;;;;;;0.80;0.60;;;;;;;9.19;62.07;96821.25;5040488;28;20437;-70
2023/12/21 05:33:10;;;;;;;1.53;0.57;;;;;;;9.47;61.79;96822.88;5033796;28;20257;-70
2023/12/21 05:35:35;;;;;;;1.00;0.70;;;;;;;9.49;61.87;96834.00;5016033;28;20656;-71
2023/12/21 05:38:01;;;;;;;0.80;0.70;;;;;;;9.46;61.89;96813.38;5033953;28;20801;-71
2023/12/21 05:40:26;;;;;;;0.97;0.63;;;;;;;9.40;61.98;96788.69;5034267;28;20208;-69
2023/12/21 05:42:52;;;;;;;0.80;0.50;;;;;;;9.41;62.12;96799.97;5034010;28;20260;-69
2023/12/21 05:45:17;;;;;;;0.80;0.60;;;;;;;9.53;61.37;96796.13;5037308;28;20206;-70
2023/12/21 05:47:43;;;;;;;0.80;0.60;;;;;;;9.52;61.71;96799.72;5038924;28;20215;-70
2023/12/21 05:50:09;;;;;;;0.90;0.70;;;;;;;9.31;62.15;96782.59;5030834;28;20253;-71
2023/12/21 05:52:34;;;;;;;0.80;0.50;;;;;;;9.43;61.97;96782.34;5042970;28;20194;-71
2023/12/21 05:55:00;;;;;;;0.90;0.80;;;;;;;9.36;62.22;96789.97;5033111;28;20442;-69
2023/12/21 05:57:25;;;;;;;3.23;0.67;;;;;;;9.46;61.94;96782.00;5044770;28;20241;-70
2023/12/21 05:59:51;;;;;;;1.10;0.60;;;;;;;9.28;62.06;96776.84;5037677;28;20238;-70
2023/12/21 06:02:16;;;;;;;0.90;0.60;;;;;;;9.35;62.48;96773.44;5043922;28;20194;-72
2023/12/21 06:04:41;;;;;;;0.83;0.60;;;;;;;9.27;62.52;96778.66;5041683;28;20686;-69
2023/12/21 06:07:07;;;;;;;0.90;0.73;;;;;;;9.29;62.70;96773.25;5036333;28;20207;-71
2023/12/21 06:09:33;;;;;;;0.90;0.60;;;;;;;9.27;62.69;96794.34;5039928;28;20203;-71
2023/12/21 06:11:58;;;;;;;0.90;0.63;;;;;;;9.27;63.15;96764.75;5027568;28;20219;-72
2023/12/21 06:14:23;;;;;;;1.40;0.70;;;;;;;9.23;62.82;96764.22;5043945;28;20660;-72
2023/12/21 06:16:49;;;;;;;0.90;0.77;;;;;;;9.26;62.78;96750.84;5042280;28;20695;-71
2023/12/21 06:19:15;;;;;;;0.80;0.50;;;;;;;9.36;62.72;96763.81;5039428;28;20657;-72
2023/12/21 06:21:40;;;;;;;1.00;0.60;;;;;;;9.45;62.71;96749.81;5034396;28;20201;-70
2023/12/21 06:24:06;;;;;;;2.03;1.10;;;;;;;9.46;62.70;96748.00;5037035;28;20467;-71
2023/12/21 06:26:32;;;;;;;1.10;0.60;;;;;;;9.32;63.50;96736.34;5042193;28;20206;-71
2023/12/21 06:28:58;;;;;;;0.80;0.60;;;;;;;8.88;64.92;96727.56;5036136;28;20203;-70
2023/12/21 06:31:24;;;;;;;1.20;0.90;;;;;;;9.03;64.98;96711.34;5038740;28;20777;-70
2023/12/21 06:33:50;;;;;;;0.90;0.70;;;;;;;9.33;63.62;96702.16;5042075;28;20187;-70
2023/12/21 06:36:15;;;;;;;0.90;0.80;;;;;;;9.40;63.65;96704.19;5033040;28;20312;-71
2023/12/21 06:38:41;;;;;;;1.00;0.70;;;;;;;9.06;64.55;96700.56;5028381;28;20431;-71
2023/12/21 06:41:07;;;;;;;1.57;0.70;;;;;;;9.28;64.16;96694.00;5037046;28;20187;-71
2023/12/21 06:43:32;;;;;;;1.30;0.90;;;;;;;9.33;63.89;96694.31;5034345;28;20369;-71
2023/12/21 06:45:58;;;;;;;2.37;1.00;;;;;;;9.38;63.55;96691.28;5019976;28;20266;-71
2023/12/21 06:48:23;;;;;;;1.40;0.87;;;;;;;9.27;64.42;96683.69;5024390;28;20730;-71
2023/12/21 06:50:48;;;;;;;1.17;0.80;;;;;;;9.31;64.04;96688.47;5034772;28;20443;-71
2023/12/21 06:53:15;;;;;;;0.90;0.70;;;;;;;8.94;65.02;96679.13;5048010;28;20269;-71
2023/12/21 06:55:44;;;;;;;0.90;0.70;;;;;;;9.05;64.53;96691.94;5035431;28;20202;-71
2023/12/21 06:58:10;;;;;;;1.40;1.30;;;;;;;9.42;63.79;96691.75;5037144;28;20437;-71
2023/12/21 07:00:35;;;;;;;1.87;0.77;;;;;;;9.29;63.89;96693.03;5035322;28;20513;-70
2023/12/21 07:03:00;;;;;;;1.53;0.70;;;;;;;9.18;64.46;96688.06;5036008;28;20195;-70
2023/12/21 07:05:26;;;;;;;2.33;1.00;;;;;;;9.42;63.56;96691.75;5034319;28;20186;-70
2023/12/21 07:07:54;;;;;;;1.00;0.70;;;;;;;9.46;63.28;96677.38;5044953;28;20691;-69
2023/12/21 07:10:22;;;;;;;1.63;0.70;;;;;;;9.63;62.71;96680.88;5042040;28;20199;-69
2023/12/21 07:12:48;;;;;;;1.53;0.80;;;;;;;9.64;62.89;96669.44;5028606;28;20431;-71
2023/12/21 07:15:13;;;;;;;0.80;0.60;;;;;;;9.54;63.08;96669.56;5033105;28;20438;-70
2023/12/21 07:17:39;;;;;;;1.03;0.60;;;;;;;9.45;63.44;96673.94;5037779;28;20208;-71
2023/12/21 07:20:04;;;;;;;1.33;1.00;;;;;;;9.53;62.99;96652.25;5041580;28;20202;-71
2023/12/21 07:22:30;;;;;;;1.13;0.83;;;;;;;9.44;63.82;96661.03;5041291;28;20297;-70
2023/12/21 07:24:55;;;;;;;0.93;0.77;;;;;;;9.58;63.18;96660.41;5043106;28;20441;-70
2023/12/21 07:27:21;;;;;;;1.10;0.77;;;;;;;9.65;62.49;96645.72;5042371;28;20210;-70
2023/12/21 07:29:46;;;;;;;1.00;0.70;;;;;;;9.37;63.77;96648.59;5039019;28;20270;-71
2023/12/21 07:32:12;;;;;;;0.90;0.70;;;;;;;9.67;63.33;96656.84;5028870;28;20200;-72
2023/12/21 07:34:37;;;;;;;0.97;0.60;;;;;;;9.36;64.68;96646.94;5038885;28;20716;-71
2023/12/21 07:37:03;;;;;;;3.43;0.80;;;;;;;9.62;63.93;96637.38;5027071;28;20231;-69
2023/12/21 07:39:28;;;;;;;3.67;0.80;;;;;;;9.70;63.33;96628.75;5030992;28;20624;-70
2023/12/21 07:41:54;;;;;;;1.73;0.80;;;;;;;9.75;63.61;96639.53;5036765;28;20308;-69
2023/12/21 07:44:19;;;;;;;1.00;0.60;;;;;;;9.79;63.70;96625.16;5040535;28;20205;-70
2023/12/21 07:46:45;;;;;;;1.23;0.60;;;;;;;9.84;63.67;96628.09;5037163;28;20215;-70
2023/12/21 07:49:10;;;;;;;1.00;0.73;;;;;;;9.48;64.76;96644.03;5031823;28;20315;-70
2023/12/21 07:51:36;;;;;;;1.10;0.60;;;;;;;9.82;63.97;96628.25;5036903;28;20233;-71
2023/12/21 07:54:01;;;;;;;1.07;0.70;;;;;;;9.87;63.51;96629.59;5037953;28;20192;-71
2023/12/21 07:56:27;;;;;;;0.80;0.50;;;;;;;9.90;63.48;96631.84;5040778;28;20211;-69
2023/12/21 07:58:52;;;;;;;0.90;0.60;;;;;;;9.80;63.67;96627.59;5036527;28;20618;-70
2023/12/21 08:01:18;;;;;;;0.90;0.67;;;;;;;9.84;63.28;96622.84;5039950;28;20272;-71
2023/12/21 08:03:43;;;;;;;2.60;1.07;;;;;;;9.76;64.17;96620.22;5039180;28;20199;-70
2023/12/21 08:06:19;;;;;;;1.67;0.80;;;;;;;9.87;63.83;96606.81;5033754;28;20212;-70
2023/12/21 08:08:45;;;;;;;1.40;0.70;;;;;;;9.73;64.04;96610.09;5040581;28;20196;-72
2023/12/21 08:11:10;;;;;;;0.90;0.70;;;;;;;9.74;63.92;96606.47;5022765;28;20522;-70
2023/12/21 08:13:36;;;;;;;0.80;0.60;;;;;;;9.79;64.27;96620.72;5043483;28;20443;-71
2023/12/21 08:16:01;;;;;;;0.90;0.60;;;;;;;9.86;63.89;96622.72;5039585;28;20783;-70
2023/12/21 08:18:27;;;;;;;0.80;0.60;;;;;;;10.06;63.11;96615.38;5034420;28;20287;-70
2023/12/21 08:20:52;;;;;;;0.90;0.70;;;;;;;10.02;63.52;96616.66;5040821;28;20191;-71
2023/12/21 08:23:18;;;;;;;0.90;0.60;;;;;;;9.67;64.29;96601.91;5041500;28;20203;-71
2023/12/21 08:25:44;;;;;;;0.90;0.60;;;;;;;9.71;64.13;96606.81;5040623;28;20180;-70
2023/12/21 08:28:09;;;;;;;0.80;0.60;;;;;;;10.04;63.52;96601.63;5040393;28;20620;-71
2023/12/21 08:30:35;;;;;;;1.20;0.80;;;;;;;10.15;63.13;96598.66;5038043;28;20534;-71
2023/12/21 08:33:00;;;;;;;1.00;0.60;;;;;;;10.15;63.06;96590.81;5043080;28;20641;-70
2023/12/21 08:35:26;;;;;;;1.20;0.60;;;;;;;10.25;63.13;96577.56;5032887;28;20223;-71
2023/12/21 08:37:51;;;;;;;2.53;0.90;;;;;;;10.20;63.21;96579.84;5048194;28;20222;-70
2023/12/21 08:40:17;;;;;;;3.73;0.90;;;;;;;9.91;64.01;96575.91;5028878;28;20298;-71
2023/12/21 08:42:43;;;;;;;0.80;0.60;;;;;;;9.94;63.95;96581.66;5032044;28;20203;-69
2023/12/21 08:45:09;;;;;;;1.93;0.87;;;;;;;9.95;64.13;96588.53;5041416;28;20331;-68
2023/12/21 08:47:40;;;;;;;0.90;0.60;;;;;;;10.00;64.29;96590.66;5042935;28;20290;-71
2023/12/21 08:50:07;;;;;;;0.90;0.60;;;;;;;10.14;64.25;96579.50;5044173;28;20450;-70
2023/12/21 08:52:33;;;;;;;1.67;0.57;;;;;;;10.12;64.02;96588.50;5035311;28;20425;-71
2023/12/21 08:54:58;;;;;;;1.13;0.57;;;;;;;10.25;63.62;96586.22;5034834;28;20445;-71
2023/12/21 08:57:24;;;;;;;2.60;0.80;;;;;;;10.19;63.89;96583.44;5042351;28;20239;-72
2023/12/21 08:59:49;;;;;;;0.90;0.73;;;;;;;10.26;63.47;96574.75;5036042;28;20283;-71
2023/12/21 09:02:15;;;;;;;1.20;0.50;;;;;;;10.17;63.63;96581.00;5041437;28;20210;-71
2023/12/21 09:04:40;;;;;;;0.90;0.60;;;;;;;10.27;63.21;96588.69;5041905;28;20210;-70
2023/12/21 09:07:05;;;;;;;0.87;0.60;;;;;;;10.20;63.68;96591.13;5044070;28;20404;-71
2023/12/21 09:09:31;;;;;;;0.87;0.50;;;;;;;10.11;63.79;96587.72;5031817;28;20199;-73
2023/12/21 09:11:57;;;;;;;1.30;0.60;;;;;;;10.09;64.08;96581.81;5029805;28;20279;-69
2023/12/21 09:14:24;;;;;;;1.40;0.70;;;;;;;9.88;64.57;96574.44;5039809;28;20430;-71
2023/12/21 09:16:51;;;;;;;1.00;0.60;;;;;;;10.06;63.98;96565.63;5042123;28;20974;-71
2023/12/21 09:19:17;;;;;;;1.33;0.60;;;;;;;10.09;63.99;96560.88;5033942;28;20438;-70
2023/12/21 09:21:42;;;;;;;1.17;0.87;;;;;;;10.18;63.66;96547.75;5031742;28;21030;-69
2023/12/21 09:24:08;;;;;;;1.50;0.80;;;;;;;10.13;63.50;96533.38;5029316;28;20223;-71
2023/12/21 09:26:33;;;;;;;1.43;0.70;;;;;;;10.01;64.25;96523.41;5028300;28;20202;-71
2023/12/21 09:28:59;;;;;;;1.00;0.83;;;;;;;10.32;63.26;96525.31;5034856;28;20250;-70
2023/12/21 09:31:25;;;;;;;1.00;0.80;;;;;;;10.25;63.37;96522.56;5036646;28;20272;-70
2023/12/21 09:33:50;;;;;;;1.10;0.80;;;;;;;10.39;63.22;96521.06;5036218;28;20525;-71
2023/12/21 09:36:16;;;;;;;0.97;0.70;;;;;;;10.17;63.83;96526.00;5029093;28;20226;-70
2023/12/21 09:38:41;;;;;;;1.00;0.80;;;;;;;10.11;63.56;96524.03;5041841;28;20246;-71
2023/12/21 09:41:07;;;;;;;2.10;0.67;;;;;;;10.32;63.20;96509.59;5031759;28;20219;-71
2023/12/21 09:43:33;;;;;;;0.80;0.50;;;;;;;10.35;63.20;96515.31;5026519;28;20183;-70
2023/12/21 09:46:00;;;;;;;0.87;0.60;;;;;;;10.36;63.06;96518.75;5036086;28;20294;-71
2023/12/21 09:48:26;;;;;;;1.10;0.70;;;;;;;10.30;63.08;96501.91;5034981;28;20434;-72
2023/12/21 09:50:51;;;;;;;0.90;0.70;;;;;;;10.38;63.23;96491.44;5042634;28;20469;-70
2023/12/21 09:53:17;;;;;;;0.93;0.60;;;;;;;10.29;63.25;96474.91;5042344;28;20993;-69
2023/12/21 09:55:43;;;;;;;1.30;0.60;;;;;;;10.24;63.41;96482.44;5043709;28;20187;-70
2023/12/21 09:58:11;;;;;;;1.10;0.93;;;;;;;10.10;63.54;96470.88;5034914;28;20191;-72
2023/12/21 10:00:37;;;;;;;1.10;0.93;;;;;;;10.27;63.48;96460.34;5036806;28;20520;-70
2023/12/21 10:03:04;;;;;;;1.00;0.70;;;;;;;10.40;63.11;96459.84;5040508;28;20440;-70
2023/12/21 10:05:29;;;;;;;1.87;0.70;;;;;;;10.48;63.22;96459.00;5033049;28;20911;-71
2023/12/21 10:07:55;;;;;;;0.90;0.70;;;;;;;10.60;62.62;96466.31;5033527;28;20553;-70
2023/12/21 10:10:20;;;;;;;1.67;0.67;;;;;;;10.65;62.29;96467.59;5033857;28;20218;-71
2023/12/21 10:12:46;;;;;;;1.00;0.80;;;;;;;10.69;62.57;96466.28;5034986;28;20202;-70
2023/12/21 10:15:11;;;;;;;1.00;0.70;;;;;;;10.60;62.96;96468.13;5028260;28;20665;-70
2023/12/21 10:17:38;;;;;;;1.57;0.80;;;;;;;10.58;63.37;96465.69;5031233;28;20234;-71
2023/12/21 10:20:04;;;;;;;1.00;0.80;;;;;;;10.70;63.07;96445.13;5039149;28;20726;-70
2023/12/21 10:22:29;;;;;;;0.93;0.70;;;;;;;10.60;63.50;96421.75;5039843;28;20517;-71
2023/12/21 10:24:55;;;;;;;1.20;0.90;;;;;;;10.73;63.29;96423.00;5043128;28;21111;-69
2023/12/21 10:27:22;;;;;;;2.70;1.20;;;;;;;10.58;63.52;96400.16;5029302;28;20207;-70
2023/12/21 10:29:58;;;;;;;1.93;0.97;;;;;;;10.65;63.26;96389.78;5037327;28;20274;-69
2023/12/21 10:32:24;;;;;;;1.40;0.70;;;;;;;10.45;64.27;96368.47;5028423;28;20432;-71
2023/12/21 10:34:49;;;;;;;0.90;0.70;;;;;;;10.64;63.71;96371.63;5029704;28;20525;-71
2023/12/21 10:37:15;;;;;;;0.90;0.60;;;;;;;10.03;65.33;96386.13;5028899;28;20269;-71
2023/12/21 10:39:41;;;;;;;0.80;0.60;;;;;;;10.57;64.31;96361.84;5031801;28;20270;-69
2023/12/21 10:42:06;;;;;;;1.00;0.60;;;;;;;10.19;65.43;96359.06;5034660;28;20528;-69
2023/12/21 10:44:32;;;;;;;1.10;0.60;;;;;;;10.49;64.51;96347.97;5037536;28;20247;-70
2023/12/21 10:46:58;;;;;;;0.80;0.60;;;;;;;10.49;64.64;96333.06;5017663;28;20211;-71
2023/12/21 10:49:24;;;;;;;1.23;0.70;;;;;;;10.71;64.21;96320.97;5033015;28;20282;-70
2023/12/21 10:51:50;;;;;;;0.87;0.60;;;;;;;10.52;64.21;96295.25;5013994;28;20429;-70
2023/12/21 10:54:18;;;;;;;0.80;0.50;;;;;;;10.78;63.65;96286.19;5044061;28;20536;-69
2023/12/21 10:56:45;;;;;;;0.83;0.60;;;;;;;10.49;64.08;96275.44;5032545;28;20453;-71
2023/12/21 10:59:12;;;;;;;0.90;0.63;;;;;;;10.88;63.30;96266.63;5031844;28;20452;-71
2023/12/21 11:01:39;;;;;;;0.80;0.60;;;;;;;10.79;63.59;96275.56;5039623;28;20429;-70
2023/12/21 11:04:05;;;;;;;2.33;0.60;;;;;;;10.72;63.78;96264.97;5028488;28;20939;-70
2023/12/21 11:06:33;;;;;;;1.20;0.60;;;;;;;10.72;63.91;96253.66;5039118;28;20469;-70
2023/12/21 11:09:00;;;;;;;0.80;0.70;;;;;;;10.81;63.53;96268.34;5041055;28;20861;-70
2023/12/21 11:11:25;;;;;;;1.50;0.60;;;;;;;10.60;63.99;96259.31;5041790;28;20445;-70
2023/12/21 11:14:00;;;;;;;1.43;0.57;;;;;;;10.49;64.26;96272.81;5035961;28;20810;-70
2023/12/21 11:16:29;;;;;;;0.80;0.60;;;;;;;10.78;63.50;96263.44;5034699;28;20563;-70
2023/12/21 11:18:56;;;;;;;0.80;0.50;;;;;;;10.74;63.57;96247.25;5031381;28;20442;-70
2023/12/21 11:21:24;;;;;;;0.80;0.60;;;;;;;10.80;63.38;96235.25;5033580;28;20461;-71
2023/12/21 11:23:50;;;;;;;0.80;0.60;;;;;;;10.83;63.47;96227.03;5039722;28;20429;-71
2023/12/21 11:26:21;;;;;;;0.90;0.60;;;;;;;10.83;63.36;96229.66;5035340;28;20463;-71
2023/12/21 11:28:47;;;;;;;0.80;0.60;;;;;;;10.84;63.28;96219.97;5027832;28;20468;-71
2023/12/21 11:31:13;;;;;;;1.07;0.60;;;;;;;10.86;63.49;96213.56;5032274;28;20433;-70